sensor_id;sensor_type;location;lat;lon;timestamp;temperature;humidity
13091;DHT22;6611;52.604;13.438;2022-11-20T00:02:14;1.99;86.15
13091;DHT22;6611;52.604;13.438;2022-11-20T00:07:16;1.83;86.78
13091;DHT22;6611;52.604;13.438;2022-11-20T00:12:18;1.75;86.92
13091;DHT22;6611;52.604;13.438;2022-11-20T00:17:21;1.65;86.86
13091;DHT22;6611;52.604;13.438;2022-11-20T00:22:23;1.60;87.16
13091;DHT22;6611;52.604;13.438;2022-11-20T00:27:24;1.55;87.37
13091;DHT22;6611;52.604;13.438;2022-11-20T00:32:27;1.49;87.45
13091;DHT22;6611;52.604;13.438;2022-11-20T00:37:29;1.44;87.65
13091;DHT22;6611;52.604;13.438;2022-11-20T00:42:31;1.42;87.87
13091;DHT22;6611;52.604;13.438;2022-11-20T00:47:34;1.38;87.95
13091;DHT22;6611;52.604;13.438;2022-11-20T00:52:36;1.41;87.87
13091;DHT22;6611;52.604;13.438;2022-11-20T00:57:37;1.42;87.71
13091;DHT22;6611;52.604;13.438;2022-11-20T01:02:40;1.35;87.53
13091;DHT22;6611;52.604;13.438;2022-11-20T01:07:42;1.38;87.74
13091;DHT22;6611;52.604;13.438;2022-11-20T01:12:44;1.41;87.71
13091;DHT22;6611;52.604;13.438;2022-11-20T01:18:07;1.38;87.56
13091;DHT22;6611;52.604;13.438;2022-11-20T01:23:09;1.38;87.62
13091;DHT22;6611;52.604;13.438;2022-11-20T01:28:11;1.38;87.72
13091;DHT22;6611;52.604;13.438;2022-11-20T01:33:14;1.37;87.61
13091;DHT22;6611;52.604;13.438;2022-11-20T01:38:16;1.38;87.66
13091;DHT22;6611;52.604;13.438;2022-11-20T01:43:18;1.44;87.51
13091;DHT22;6611;52.604;13.438;2022-11-20T01:48:26;1.47;87.20
13091;DHT22;6611;52.604;13.438;2022-11-20T01:53:33;1.37;87.31
13091;DHT22;6611;52.604;13.438;2022-11-20T01:58:38;1.42;86.75
13091;DHT22;6611;52.604;13.438;2022-11-20T02:03:43;1.35;87.14
13091;DHT22;6611;52.604;13.438;2022-11-20T02:08:45;1.32;87.39
13091;DHT22;6611;52.604;13.438;2022-11-20T02:13:48;1.31;87.57
13091;DHT22;6611;52.604;13.438;2022-11-20T02:18:52;1.32;87.17
13091;DHT22;6611;52.604;13.438;2022-11-20T02:24:04;1.20;87.79
13091;DHT22;6611;52.604;13.438;2022-11-20T02:29:06;1.31;87.06
13091;DHT22;6611;52.604;13.438;2022-11-20T02:34:08;1.32;86.98
13091;DHT22;6611;52.604;13.438;2022-11-20T02:39:13;1.38;86.63
13091;DHT22;6611;52.604;13.438;2022-11-20T02:44:17;1.26;87.15
13091;DHT22;6611;52.604;13.438;2022-11-20T02:49:18;1.26;87.35
13091;DHT22;6611;52.604;13.438;2022-11-20T02:54:21;1.39;86.97
13091;DHT22;6611;52.604;13.438;2022-11-20T02:59:23;1.42;86.63
13091;DHT22;6611;52.604;13.438;2022-11-20T03:04:25;1.38;86.56
13091;DHT22;6611;52.604;13.438;2022-11-20T03:09:28;1.35;86.34
13091;DHT22;6611;52.604;13.438;2022-11-20T03:14:29;1.39;86.25
13091;DHT22;6611;52.604;13.438;2022-11-20T03:19:31;1.32;86.46
13091;DHT22;6611;52.604;13.438;2022-11-20T03:24:35;1.27;86.72
13091;DHT22;6611;52.604;13.438;2022-11-20T03:29:37;1.32;86.76
13091;DHT22;6611;52.604;13.438;2022-11-20T03:34:39;1.27;86.80
13091;DHT22;6611;52.604;13.438;2022-11-20T03:39:42;1.23;86.24
13091;DHT22;6611;52.604;13.438;2022-11-20T03:44:44;1.20;86.73
13091;DHT22;6611;52.604;13.438;2022-11-20T03:49:46;1.19;86.58
13091;DHT22;6611;52.604;13.438;2022-11-20T03:54:48;1.23;86.63
13091;DHT22;6611;52.604;13.438;2022-11-20T03:59:50;1.19;86.94
13091;DHT22;6611;52.604;13.438;2022-11-20T04:04:52;1.19;86.79
13091;DHT22;6611;52.604;13.438;2022-11-20T04:09:55;1.14;86.89
13091;DHT22;6611;52.604;13.438;2022-11-20T04:14:56;1.23;86.75
13091;DHT22;6611;52.604;13.438;2022-11-20T04:19:58;1.26;86.86
13091;DHT22;6611;52.604;13.438;2022-11-20T04:25:01;1.37;86.44
13091;DHT22;6611;52.604;13.438;2022-11-20T04:30:04;1.31;85.98
13091;DHT22;6611;52.604;13.438;2022-11-20T04:35:06;1.32;86.16
13091;DHT22;6611;52.604;13.438;2022-11-20T04:40:11;1.28;86.21
13091;DHT22;6611;52.604;13.438;2022-11-20T04:45:12;1.31;86.17
13091;DHT22;6611;52.604;13.438;2022-11-20T04:50:14;1.28;86.57
13091;DHT22;6611;52.604;13.438;2022-11-20T04:55:17;1.21;86.59
13091;DHT22;6611;52.604;13.438;2022-11-20T05:00:19;1.20;86.68
13091;DHT22;6611;52.604;13.438;2022-11-20T05:05:21;1.10;87.15
13091;DHT22;6611;52.604;13.438;2022-11-20T05:10:24;1.08;87.00
13091;DHT22;6611;52.604;13.438;2022-11-20T05:15:26;1.11;86.90
13091;DHT22;6611;52.604;13.438;2022-11-20T05:20:27;1.08;86.88
13091;DHT22;6611;52.604;13.438;2022-11-20T05:25:30;1.11;87.04
13091;DHT22;6611;52.604;13.438;2022-11-20T05:30:32;1.10;86.93
13091;DHT22;6611;52.604;13.438;2022-11-20T05:35:33;1.21;86.73
13091;DHT22;6611;52.604;13.438;2022-11-20T05:40:36;1.10;86.79
13091;DHT22;6611;52.604;13.438;2022-11-20T05:45:38;1.08;86.86
13091;DHT22;6611;52.604;13.438;2022-11-20T05:50:40;1.04;87.25
13091;DHT22;6611;52.604;13.438;2022-11-20T05:55:43;1.19;86.40
13091;DHT22;6611;52.604;13.438;2022-11-20T06:00:45;1.14;86.60
13091;DHT22;6611;52.604;13.438;2022-11-20T06:05:47;1.16;86.70
13091;DHT22;6611;52.604;13.438;2022-11-20T06:10:50;1.16;86.58
13091;DHT22;6611;52.604;13.438;2022-11-20T06:15:52;1.19;86.62
13091;DHT22;6611;52.604;13.438;2022-11-20T06:21:01;1.19;86.86
13091;DHT22;6611;52.604;13.438;2022-11-20T06:26:06;1.27;86.25
13091;DHT22;6611;52.604;13.438;2022-11-20T06:31:10;1.17;87.02
13091;DHT22;6611;52.604;13.438;2022-11-20T06:36:15;1.10;87.69
13091;DHT22;6611;52.604;13.438;2022-11-20T06:41:20;1.05;87.66
13091;DHT22;6611;52.604;13.438;2022-11-20T06:46:22;1.11;87.77
13091;DHT22;6611;52.604;13.438;2022-11-20T06:51:25;1.26;86.94
13091;DHT22;6611;52.604;13.438;2022-11-20T06:56:28;1.24;86.82
13091;DHT22;6611;52.604;13.438;2022-11-20T07:01:29;1.28;86.96
13091;DHT22;6611;52.604;13.438;2022-11-20T07:06:31;1.28;87.16
13091;DHT22;6611;52.604;13.438;2022-11-20T07:11:34;1.45;86.55
13091;DHT22;6611;52.604;13.438;2022-11-20T07:16:36;1.44;86.71
13091;DHT22;6611;52.604;13.438;2022-11-20T07:21:38;1.37;87.04
13091;DHT22;6611;52.604;13.438;2022-11-20T07:26:41;1.45;86.51
13091;DHT22;6611;52.604;13.438;2022-11-20T07:31:42;1.44;87.02
13091;DHT22;6611;52.604;13.438;2022-11-20T07:36:44;1.45;87.07
13091;DHT22;6611;52.604;13.438;2022-11-20T07:41:47;1.65;86.41
13091;DHT22;6611;52.604;13.438;2022-11-20T07:46:49;1.66;85.95
13091;DHT22;6611;52.604;13.438;2022-11-20T07:51:51;1.65;86.18
13091;DHT22;6611;52.604;13.438;2022-11-20T07:56:55;1.59;86.88
13091;DHT22;6611;52.604;13.438;2022-11-20T08:01:56;1.72;86.66
13091;DHT22;6611;52.604;13.438;2022-11-20T08:06:58;1.76;85.97
13091;DHT22;6611;52.604;13.438;2022-11-20T08:12:01;1.84;85.87
13091;DHT22;6611;52.604;13.438;2022-11-20T08:17:29;1.96;85.92
13091;DHT22;6611;52.604;13.438;2022-11-20T08:22:30;1.97;85.74
13091;DHT22;6611;52.604;13.438;2022-11-20T08:27:34;1.93;85.59
13091;DHT22;6611;52.604;13.438;2022-11-20T08:32:35;1.94;84.58
13091;DHT22;6611;52.604;13.438;2022-11-20T08:37:38;1.89;85.16
13091;DHT22;6611;52.604;13.438;2022-11-20T08:42:47;1.94;85.09
13091;DHT22;6611;52.604;13.438;2022-11-20T08:47:49;2.04;83.88
13091;DHT22;6611;52.604;13.438;2022-11-20T08:52:51;1.92;83.29
13091;DHT22;6611;52.604;13.438;2022-11-20T08:57:54;1.90;84.26
13091;DHT22;6611;52.604;13.438;2022-11-20T09:02:56;1.94;83.67
13091;DHT22;6611;52.604;13.438;2022-11-20T09:07:59;1.96;84.13
13091;DHT22;6611;52.604;13.438;2022-11-20T09:13:02;1.79;84.68
13091;DHT22;6611;52.604;13.438;2022-11-20T09:18:03;1.86;84.58
13091;DHT22;6611;52.604;13.438;2022-11-20T09:23:05;1.90;84.35
13091;DHT22;6611;52.604;13.438;2022-11-20T09:28:09;2.01;84.14
13091;DHT22;6611;52.604;13.438;2022-11-20T09:33:10;2.10;83.87
13091;DHT22;6611;52.604;13.438;2022-11-20T09:38:12;2.00;83.88
13091;DHT22;6611;52.604;13.438;2022-11-20T09:43:18;1.99;83.19
13091;DHT22;6611;52.604;13.438;2022-11-20T09:48:34;2.07;83.02
13091;DHT22;6611;52.604;13.438;2022-11-20T09:53:45;2.09;83.49
13091;DHT22;6611;52.604;13.438;2022-11-20T09:58:51;2.09;83.65
13091;DHT22;6611;52.604;13.438;2022-11-20T10:03:57;2.15;82.69
13091;DHT22;6611;52.604;13.438;2022-11-20T10:09:06;2.03;83.55
13091;DHT22;6611;52.604;13.438;2022-11-20T10:14:17;2.13;84.08
13091;DHT22;6611;52.604;13.438;2022-11-20T10:19:40;2.21;83.39
13091;DHT22;6611;52.604;13.438;2022-11-20T10:24:53;2.20;83.32
13091;DHT22;6611;52.604;13.438;2022-11-20T10:30:01;2.11;83.40
13091;DHT22;6611;52.604;13.438;2022-11-20T10:35:09;2.24;82.63
13091;DHT22;6611;52.604;13.438;2022-11-20T10:40:22;2.28;83.09
13091;DHT22;6611;52.604;13.438;2022-11-20T10:45:43;2.36;83.37
13091;DHT22;6611;52.604;13.438;2022-11-20T10:50:56;2.44;83.10
13091;DHT22;6611;52.604;13.438;2022-11-20T10:56:03;2.46;82.91
13091;DHT22;6611;52.604;13.438;2022-11-20T11:01:14;2.63;81.87
13091;DHT22;6611;52.604;13.438;2022-11-20T11:06:21;2.64;81.55
13091;DHT22;6611;52.604;13.438;2022-11-20T11:11:29;2.57;82.69
13091;DHT22;6611;52.604;13.438;2022-11-20T11:16:32;2.49;82.16
13091;DHT22;6611;52.604;13.438;2022-11-20T11:21:34;2.52;82.17
13091;DHT22;6611;52.604;13.438;2022-11-20T11:26:58;2.53;81.94
13091;DHT22;6611;52.604;13.438;2022-11-20T11:32:07;2.38;81.55
13091;DHT22;6611;52.604;13.438;2022-11-20T11:37:14;2.44;82.54
13091;DHT22;6611;52.604;13.438;2022-11-20T11:42:19;2.42;82.62
13091;DHT22;6611;52.604;13.438;2022-11-20T11:47:24;2.39;81.26
13091;DHT22;6611;52.604;13.438;2022-11-20T11:52:26;2.28;82.54
13091;DHT22;6611;52.604;13.438;2022-11-20T11:57:45;2.09;83.66
13091;DHT22;6611;52.604;13.438;2022-11-20T12:02:57;2.10;84.12
13091;DHT22;6611;52.604;13.438;2022-11-20T12:08:04;2.22;84.93
13091;DHT22;6611;52.604;13.438;2022-11-20T12:13:18;2.28;84.29
13091;DHT22;6611;52.604;13.438;2022-11-20T12:18:23;2.25;84.51
13091;DHT22;6611;52.604;13.438;2022-11-20T12:23:30;2.32;84.40
13091;DHT22;6611;52.604;13.438;2022-11-20T12:28:47;2.39;83.75
13091;DHT22;6611;52.604;13.438;2022-11-20T12:34:13;2.44;83.05
13091;DHT22;6611;52.604;13.438;2022-11-20T12:39:34;2.46;83.32
13091;DHT22;6611;52.604;13.438;2022-11-20T12:44:47;2.46;82.54
13091;DHT22;6611;52.604;13.438;2022-11-20T12:50:15;2.42;82.70
13091;DHT22;6611;52.604;13.438;2022-11-20T12:55:28;2.34;82.94
13091;DHT22;6611;52.604;13.438;2022-11-20T13:00:33;2.50;83.11
13091;DHT22;6611;52.604;13.438;2022-11-20T13:05:46;2.80;81.01
13091;DHT22;6611;52.604;13.438;2022-11-20T13:10:55;2.75;81.18
13091;DHT22;6611;52.604;13.438;2022-11-20T13:16:02;2.80;81.85
13091;DHT22;6611;52.604;13.438;2022-11-20T13:21:16;2.69;81.04
13091;DHT22;6611;52.604;13.438;2022-11-20T13:26:20;2.83;81.75
13091;DHT22;6611;52.604;13.438;2022-11-20T13:31:31;2.84;81.51
13091;DHT22;6611;52.604;13.438;2022-11-20T13:36:35;2.83;81.62
13091;DHT22;6611;52.604;13.438;2022-11-20T13:41:37;2.72;81.08
13091;DHT22;6611;52.604;13.438;2022-11-20T13:46:41;2.57;82.02
13091;DHT22;6611;52.604;13.438;2022-11-20T13:51:48;2.42;82.36
13091;DHT22;6611;52.604;13.438;2022-11-20T13:56:59;2.41;82.24
13091;DHT22;6611;52.604;13.438;2022-11-20T14:02:10;2.36;82.52
13091;DHT22;6611;52.604;13.438;2022-11-20T14:07:14;2.21;84.00
13091;DHT22;6611;52.604;13.438;2022-11-20T14:12:18;2.18;83.32
13091;DHT22;6611;52.604;13.438;2022-11-20T14:17:22;2.11;83.47
13091;DHT22;6611;52.604;13.438;2022-11-20T14:22:27;2.07;83.30
13091;DHT22;6611;52.604;13.438;2022-11-20T14:27:33;2.03;82.65
13091;DHT22;6611;52.604;13.438;2022-11-20T14:32:35;2.07;83.25
13091;DHT22;6611;52.604;13.438;2022-11-20T14:37:40;2.13;82.91
13091;DHT22;6611;52.604;13.438;2022-11-20T14:42:43;2.03;84.26
13091;DHT22;6611;52.604;13.438;2022-11-20T14:47:45;2.13;83.20
13091;DHT22;6611;52.604;13.438;2022-11-20T14:52:53;2.07;83.66
13091;DHT22;6611;52.604;13.438;2022-11-20T14:57:56;2.03;83.55
13091;DHT22;6611;52.604;13.438;2022-11-20T15:02:58;1.99;83.62
13091;DHT22;6611;52.604;13.438;2022-11-20T15:08:08;1.96;83.96
13091;DHT22;6611;52.604;13.438;2022-11-20T15:13:12;2.00;83.69
13091;DHT22;6611;52.604;13.438;2022-11-20T15:18:16;2.07;83.23
13091;DHT22;6611;52.604;13.438;2022-11-20T15:23:20;2.01;83.72
13091;DHT22;6611;52.604;13.438;2022-11-20T15:28:28;2.01;83.39
13091;DHT22;6611;52.604;13.438;2022-11-20T15:33:30;1.99;84.14
13091;DHT22;6611;52.604;13.438;2022-11-20T15:38:33;1.97;84.11
13091;DHT22;6611;52.604;13.438;2022-11-20T15:43:34;1.99;83.94
13091;DHT22;6611;52.604;13.438;2022-11-20T15:48:38;1.89;84.05
13091;DHT22;6611;52.604;13.438;2022-11-20T15:53:42;1.89;84.05
13091;DHT22;6611;52.604;13.438;2022-11-20T15:58:44;1.96;83.38
13091;DHT22;6611;52.604;13.438;2022-11-20T16:03:45;1.94;83.75
13091;DHT22;6611;52.604;13.438;2022-11-20T16:08:49;1.97;83.11
13091;DHT22;6611;52.604;13.438;2022-11-20T16:13:50;1.79;83.75
13091;DHT22;6611;52.604;13.438;2022-11-20T16:19:10;1.70;83.88
13091;DHT22;6611;52.604;13.438;2022-11-20T16:24:14;1.65;83.98
13091;DHT22;6611;52.604;13.438;2022-11-20T16:29:17;1.63;84.00
13091;DHT22;6611;52.604;13.438;2022-11-20T16:34:18;1.60;84.11
13091;DHT22;6611;52.604;13.438;2022-11-20T16:39:21;1.52;84.28
13091;DHT22;6611;52.604;13.438;2022-11-20T16:44:23;1.49;84.23
13091;DHT22;6611;52.604;13.438;2022-11-20T16:49:25;1.54;83.65
13091;DHT22;6611;52.604;13.438;2022-11-20T16:54:28;1.59;83.60
13091;DHT22;6611;52.604;13.438;2022-11-20T16:59:29;1.59;83.59
13091;DHT22;6611;52.604;13.438;2022-11-20T17:04:31;1.55;83.99
13091;DHT22;6611;52.604;13.438;2022-11-20T17:09:34;1.65;83.47
13091;DHT22;6611;52.604;13.438;2022-11-20T17:14:36;1.66;83.18
13091;DHT22;6611;52.604;13.438;2022-11-20T17:19:37;1.67;83.02
13091;DHT22;6611;52.604;13.438;2022-11-20T17:24:40;1.69;82.96
13091;DHT22;6611;52.604;13.438;2022-11-20T17:29:44;1.65;83.32
13091;DHT22;6611;52.604;13.438;2022-11-20T17:34:45;1.72;82.87
13091;DHT22;6611;52.604;13.438;2022-11-20T17:39:48;1.67;82.46
13091;DHT22;6611;52.604;13.438;2022-11-20T17:44:50;1.73;81.97
13091;DHT22;6611;52.604;13.438;2022-11-20T17:49:52;1.63;83.12
13091;DHT22;6611;52.604;13.438;2022-11-20T17:54:56;1.72;82.35
13091;DHT22;6611;52.604;13.438;2022-11-20T17:59:57;1.73;82.47
13091;DHT22;6611;52.604;13.438;2022-11-20T18:04:59;1.69;82.80
13091;DHT22;6611;52.604;13.438;2022-11-20T18:10:02;1.69;83.25
13091;DHT22;6611;52.604;13.438;2022-11-20T18:15:05;1.65;83.00
13091;DHT22;6611;52.604;13.438;2022-11-20T18:20:07;1.77;82.09
13091;DHT22;6611;52.604;13.438;2022-11-20T18:25:11;1.80;82.51
13091;DHT22;6611;52.604;13.438;2022-11-20T18:30:13;1.72;82.97
13091;DHT22;6611;52.604;13.438;2022-11-20T18:35:15;1.73;82.43
13091;DHT22;6611;52.604;13.438;2022-11-20T18:40:18;1.77;82.36
13091;DHT22;6611;52.604;13.438;2022-11-20T18:45:20;1.75;82.74
13091;DHT22;6611;52.604;13.438;2022-11-20T18:50:22;1.79;82.40
13091;DHT22;6611;52.604;13.438;2022-11-20T18:55:25;1.76;82.05
13091;DHT22;6611;52.604;13.438;2022-11-20T19:00:26;1.82;82.15
13091;DHT22;6611;52.604;13.438;2022-11-20T19:05:28;1.80;82.05
13091;DHT22;6611;52.604;13.438;2022-11-20T19:10:31;1.63;82.44
13091;DHT22;6611;52.604;13.438;2022-11-20T19:15:33;1.70;82.55
13091;DHT22;6611;52.604;13.438;2022-11-20T19:20:36;1.56;82.61
13091;DHT22;6611;52.604;13.438;2022-11-20T19:25:39;1.62;82.76
13091;DHT22;6611;52.604;13.438;2022-11-20T19:30:41;1.59;82.85
13091;DHT22;6611;52.604;13.438;2022-11-20T19:35:42;1.48;83.19
13091;DHT22;6611;52.604;13.438;2022-11-20T19:40:45;1.48;83.29
13091;DHT22;6611;52.604;13.438;2022-11-20T19:45:47;1.47;83.49
13091;DHT22;6611;52.604;13.438;2022-11-20T19:50:49;1.41;84.11
13091;DHT22;6611;52.604;13.438;2022-11-20T19:55:55;1.54;82.56
13091;DHT22;6611;52.604;13.438;2022-11-20T20:01:04;1.39;83.20
13091;DHT22;6611;52.604;13.438;2022-11-20T20:06:08;1.37;83.31
13091;DHT22;6611;52.604;13.438;2022-11-20T20:11:13;1.34;83.36
13091;DHT22;6611;52.604;13.438;2022-11-20T20:16:18;1.34;83.08
13091;DHT22;6611;52.604;13.438;2022-11-20T20:21:20;1.28;83.29
13091;DHT22;6611;52.604;13.438;2022-11-20T20:26:23;1.31;82.73
13091;DHT22;6611;52.604;13.438;2022-11-20T20:31:27;1.21;82.81
13091;DHT22;6611;52.604;13.438;2022-11-20T20:36:29;1.17;83.03
13091;DHT22;6611;52.604;13.438;2022-11-20T20:41:32;1.08;83.61
13091;DHT22;6611;52.604;13.438;2022-11-20T20:46:33;1.10;83.29
13091;DHT22;6611;52.604;13.438;2022-11-20T20:51:36;1.08;84.08
13091;DHT22;6611;52.604;13.438;2022-11-20T20:56:39;1.00;84.06
13091;DHT22;6611;52.604;13.438;2022-11-20T21:01:40;0.93;84.35
13091;DHT22;6611;52.604;13.438;2022-11-20T21:06:42;1.01;83.50
13091;DHT22;6611;52.604;13.438;2022-11-20T21:11:45;1.01;83.26
13091;DHT22;6611;52.604;13.438;2022-11-20T21:16:46;0.97;83.23
13091;DHT22;6611;52.604;13.438;2022-11-20T21:21:48;0.72;83.91
13091;DHT22;6611;52.604;13.438;2022-11-20T21:27:01;0.61;84.46
13091;DHT22;6611;52.604;13.438;2022-11-20T21:32:03;0.64;84.27
13091;DHT22;6611;52.604;13.438;2022-11-20T21:37:05;0.54;84.79
13091;DHT22;6611;52.604;13.438;2022-11-20T21:42:08;0.57;84.32
13091;DHT22;6611;52.604;13.438;2022-11-20T21:47:11;0.52;84.42
13091;DHT22;6611;52.604;13.438;2022-11-20T21:52:12;0.40;84.76
13091;DHT22;6611;52.604;13.438;2022-11-20T21:57:15;0.30;84.72
13091;DHT22;6611;52.604;13.438;2022-11-20T22:02:17;0.20;85.27
13091;DHT22;6611;52.604;13.438;2022-11-20T22:07:19;0.13;85.65
13091;DHT22;6611;52.604;13.438;2022-11-20T22:12:22;0.02;85.07
13091;DHT22;6611;52.604;13.438;2022-11-20T22:17:23;-0.05;85.16
13091;DHT22;6611;52.604;13.438;2022-11-20T22:22:39;-0.05;85.71
13091;DHT22;6611;52.604;13.438;2022-11-20T22:27:44;-0.17;85.54
13091;DHT22;6611;52.604;13.438;2022-11-20T22:32:46;-0.25;85.77
13091;DHT22;6611;52.604;13.438;2022-11-20T22:37:48;-0.35;85.63
13091;DHT22;6611;52.604;13.438;2022-11-20T22:42:51;-0.42;85.75
13091;DHT22;6611;52.604;13.438;2022-11-20T22:47:53;-0.43;85.45
13091;DHT22;6611;52.604;13.438;2022-11-20T22:52:55;-0.46;85.21
13091;DHT22;6611;52.604;13.438;2022-11-20T22:57:58;-0.56;85.34
13091;DHT22;6611;52.604;13.438;2022-11-20T23:02:59;-0.72;86.22
13091;DHT22;6611;52.604;13.438;2022-11-20T23:08:01;-0.76;85.33
13091;DHT22;6611;52.604;13.438;2022-11-20T23:13:04;-0.62;85.79
13091;DHT22;6611;52.604;13.438;2022-11-20T23:18:06;-0.77;85.83
13091;DHT22;6611;52.604;13.438;2022-11-20T23:23:08;-0.76;85.79
13091;DHT22;6611;52.604;13.438;2022-11-20T23:28:11;-0.80;85.82
13091;DHT22;6611;52.604;13.438;2022-11-20T23:33:12;-0.81;86.20
13091;DHT22;6611;52.604;13.438;2022-11-20T23:38:14;-0.80;86.02
13091;DHT22;6611;52.604;13.438;2022-11-20T23:43:19;-0.80;86.49
13091;DHT22;6611;52.604;13.438;2022-11-20T23:48:22;-0.77;86.37
13091;DHT22;6611;52.604;13.438;2022-11-20T23:53:25;-0.76;86.55
13091;DHT22;6611;52.604;13.438;2022-11-20T23:58:32;-0.81;86.93
